Terminal Aerodrome Forecast
Issued by NWS Wichita, KS

Home | Current Version | Previous Version | Graphics & Text | Print | Product List | Glossary On
Versions: 1 2 3 4 5 6 7 8 9 10 11 12 13 14 15 16 17 18 19 20 21 22
000
FTUS43 KICT 012342
TAFICT
TAF
KICT 012342Z 0200/0224 27008KT P6SM VCTS FEW050CB BKN150
      TEMPO 0200/0202 -TSRA BKN050CB
     FM020200 36009KT P6SM SCT100
     FM020800 34008KT P6SM SCT020
     FM021200 02010KT P6SM SCT020
     FM021600 04010KT P6SM BKN150=

USA.gov is the U.S. government's official web portal to all federal, state and local government web resources and services.